sensor_id;sensor_type;location;lat;lon;timestamp;pressure;altitude;pressure_sealevel;temperature;humidity
21357;BME280;10836;53.068;18.234;2022-09-09T00:04:03;100701.38;;;11.92;100.00
21357;BME280;10836;53.068;18.234;2022-09-09T00:06:45;100707.91;;;12.02;100.00
21357;BME280;10836;53.068;18.234;2022-09-09T00:09:17;100703.00;;;11.98;100.00
21357;BME280;10836;53.068;18.234;2022-09-09T00:14:32;100702.69;;;12.05;100.00
21357;BME280;10836;53.068;18.234;2022-09-09T00:17:06;100696.41;;;12.05;100.00
21357;BME280;10836;53.068;18.234;2022-09-09T00:19:44;100706.84;;;11.97;100.00
21357;BME280;10836;53.068;18.234;2022-09-09T00:22:20;100701.38;;;11.97;100.00
21357;BME280;10836;53.068;18.234;2022-09-09T00:24:54;100709.03;;;11.95;100.00
21357;BME280;10836;53.068;18.234;2022-09-09T00:27:36;100718.34;;;11.94;100.00
21357;BME280;10836;53.068;18.234;2022-09-09T00:32:47;100704.34;;;12.01;100.00
21357;BME280;10836;53.068;18.234;2022-09-09T00:35:36;100704.91;;;11.98;100.00
21357;BME280;10836;53.068;18.234;2022-09-09T00:38:14;100695.31;;;12.01;100.00
21357;BME280;10836;53.068;18.234;2022-09-09T00:41:02;100697.78;;;12.02;100.00
21357;BME280;10836;53.068;18.234;2022-09-09T00:43:35;100695.06;;;11.97;100.00
21357;BME280;10836;53.068;18.234;2022-09-09T00:48:59;100699.75;;;11.91;100.00
21357;BME280;10836;53.068;18.234;2022-09-09T00:51:45;100699.78;;;11.86;100.00
21357;BME280;10836;53.068;18.234;2022-09-09T00:57:11;100696.72;;;11.98;100.00
21357;BME280;10836;53.068;18.234;2022-09-09T01:02:28;100707.91;;;12.02;100.00
21357;BME280;10836;53.068;18.234;2022-09-09T01:05:06;100706.28;;;12.01;100.00
21357;BME280;10836;53.068;18.234;2022-09-09T01:07:34;100708.56;;;11.83;100.00
21357;BME280;10836;53.068;18.234;2022-09-09T01:10:07;100699.75;;;11.91;100.00
21357;BME280;10836;53.068;18.234;2022-09-09T01:12:41;100703.06;;;11.88;100.00
21357;BME280;10836;53.068;18.234;2022-09-09T01:15:17;100715.66;;;11.84;100.00
21357;BME280;10836;53.068;18.234;2022-09-09T01:18:05;100701.94;;;11.89;100.00
21357;BME280;10836;53.068;18.234;2022-09-09T01:26:18;100702.50;;;11.91;100.00
21357;BME280;10836;53.068;18.234;2022-09-09T01:28:50;100709.06;;;11.90;100.00
21357;BME280;10836;53.068;18.234;2022-09-09T01:31:32;100708.28;;;11.85;100.00
21357;BME280;10836;53.068;18.234;2022-09-09T01:34:09;100706.31;;;11.90;100.00
21357;BME280;10836;53.068;18.234;2022-09-09T01:39:10;100712.34;;;11.92;100.00
21357;BME280;10836;53.068;18.234;2022-09-09T01:41:38;100708.56;;;11.78;100.00
21357;BME280;10836;53.068;18.234;2022-09-09T01:44:09;100703.63;;;11.75;100.00
21357;BME280;10836;53.068;18.234;2022-09-09T01:46:38;100700.34;;;11.83;100.00
21357;BME280;10836;53.068;18.234;2022-09-09T01:49:12;100699.25;;;11.79;100.00
21357;BME280;10836;53.068;18.234;2022-09-09T01:51:40;100697.06;;;11.81;100.00
21357;BME280;10836;53.068;18.234;2022-09-09T01:54:12;100694.06;;;11.78;100.00
21357;BME280;10836;53.068;18.234;2022-09-09T01:59:19;100708.56;;;11.73;100.00
21357;BME280;10836;53.068;18.234;2022-09-09T02:04:41;100694.34;;;11.81;100.00
21357;BME280;10836;53.068;18.234;2022-09-09T02:09:43;100699.25;;;11.84;100.00
21357;BME280;10836;53.068;18.234;2022-09-09T02:12:14;100692.09;;;11.88;100.00
21357;BME280;10836;53.068;18.234;2022-09-09T02:14:56;100692.63;;;11.95;100.00
21357;BME280;10836;53.068;18.234;2022-09-09T02:17:34;100693.19;;;11.92;100.00
21357;BME280;10836;53.068;18.234;2022-09-09T02:20:12;100693.22;;;11.87;100.00
21357;BME280;10836;53.068;18.234;2022-09-09T02:22:49;100695.09;;;11.92;100.00
21357;BME280;10836;53.068;18.234;2022-09-09T02:25:22;100702.97;;;12.04;100.00
21357;BME280;10836;53.068;18.234;2022-09-09T02:27:51;100698.63;;;11.97;100.00
21357;BME280;10836;53.068;18.234;2022-09-09T02:30:19;100704.06;;;12.03;100.00
21357;BME280;10836;53.068;18.234;2022-09-09T02:32:57;100711.19;;;12.04;100.00
21357;BME280;10836;53.068;18.234;2022-09-09T02:35:40;100702.44;;;12.02;100.00
21357;BME280;10836;53.068;18.234;2022-09-09T02:38:12;100706.78;;;12.08;100.00
21357;BME280;10836;53.068;18.234;2022-09-09T02:40:44;100701.88;;;12.05;100.00
21357;BME280;10836;53.068;18.234;2022-09-09T02:43:14;100702.72;;;12.00;100.00
21357;BME280;10836;53.068;18.234;2022-09-09T02:46:35;100704.91;;;12.03;100.00
21357;BME280;10836;53.068;18.234;2022-09-09T02:49:10;100708.91;;;12.16;100.00
21357;BME280;10836;53.068;18.234;2022-09-09T02:51:51;100698.53;;;12.13;100.00
21357;BME280;10836;53.068;18.234;2022-09-09T02:54:27;100697.31;;;12.29;100.00
21357;BME280;10836;53.068;18.234;2022-09-09T02:57:13;100703.53;;;12.40;100.00
21357;BME280;10836;53.068;18.234;2022-09-09T02:59:46;100704.09;;;12.37;100.00
21357;BME280;10836;53.068;18.234;2022-09-09T03:02:14;100707.06;;;12.45;100.00
21357;BME280;10836;53.068;18.234;2022-09-09T03:04:44;100715.78;;;12.52;100.00
21357;BME280;10836;53.068;18.234;2022-09-09T03:07:13;100711.41;;;12.51;100.00
21357;BME280;10836;53.068;18.234;2022-09-09T03:09:41;100708.50;;;12.66;100.00
21357;BME280;10836;53.068;18.234;2022-09-09T03:12:10;100721.16;;;12.62;100.00
21357;BME280;10836;53.068;18.234;2022-09-09T03:14:38;100726.66;;;12.57;100.00
21357;BME280;10836;53.068;18.234;2022-09-09T03:17:06;100710.63;;;12.75;100.00
21357;BME280;10836;53.068;18.234;2022-09-09T03:19:37;100706.00;;;12.70;100.00
21357;BME280;10836;53.068;18.234;2022-09-09T03:22:09;100706.31;;;12.69;100.00
21357;BME280;10836;53.068;18.234;2022-09-09T03:24:39;100719.47;;;12.66;100.00
21357;BME280;10836;53.068;18.234;2022-09-09T03:27:06;100715.81;;;12.76;100.00
21357;BME280;10836;53.068;18.234;2022-09-09T03:29:36;100713.88;;;12.82;100.00
21357;BME280;10836;53.068;18.234;2022-09-09T03:32:06;100714.75;;;13.01;100.00
21357;BME280;10836;53.068;18.234;2022-09-09T03:34:33;100722.16;;;12.72;100.00
21357;BME280;10836;53.068;18.234;2022-09-09T03:37:00;100714.56;;;12.63;100.00
21357;BME280;10836;53.068;18.234;2022-09-09T03:39:28;100712.53;;;12.45;100.00
21357;BME280;10836;53.068;18.234;2022-09-09T03:41:55;100716.19;;;12.30;100.00
21357;BME280;10836;53.068;18.234;2022-09-09T03:44:23;100720.56;;;12.31;100.00
21357;BME280;10836;53.068;18.234;2022-09-09T03:46:49;100712.75;;;12.54;100.00
21357;BME280;10836;53.068;18.234;2022-09-09T03:49:17;100716.31;;;12.54;100.00
21357;BME280;10836;53.068;18.234;2022-09-09T03:51:44;100712.16;;;12.57;100.00
21357;BME280;10836;53.068;18.234;2022-09-09T03:54:13;100717.25;;;12.69;100.00
21357;BME280;10836;53.068;18.234;2022-09-09T03:56:40;100714.97;;;12.81;100.00
21357;BME280;10836;53.068;18.234;2022-09-09T03:59:11;100713.69;;;12.68;100.00
21357;BME280;10836;53.068;18.234;2022-09-09T04:01:38;100720.38;;;12.57;100.00
21357;BME280;10836;53.068;18.234;2022-09-09T04:04:06;100722.91;;;12.48;100.00
21357;BME280;10836;53.068;18.234;2022-09-09T04:06:33;100715.81;;;12.47;100.00
21357;BME280;10836;53.068;18.234;2022-09-09T04:09:01;100721.19;;;12.57;100.00
21357;BME280;10836;53.068;18.234;2022-09-09T04:11:31;100716.22;;;12.59;100.00
21357;BME280;10836;53.068;18.234;2022-09-09T04:13:59;100719.03;;;12.54;100.00
21357;BME280;10836;53.068;18.234;2022-09-09T04:16:27;100721.69;;;12.64;100.00
21357;BME280;10836;53.068;18.234;2022-09-09T04:18:54;100709.25;;;12.43;100.00
21357;BME280;10836;53.068;18.234;2022-09-09T04:21:22;100712.03;;;12.38;100.00
21357;BME280;10836;53.068;18.234;2022-09-09T04:23:49;100715.84;;;12.42;100.00
21357;BME280;10836;53.068;18.234;2022-09-09T04:26:18;100716.38;;;12.44;100.00
21357;BME280;10836;53.068;18.234;2022-09-09T04:28:45;100714.66;;;12.53;100.00
21357;BME280;10836;53.068;18.234;2022-09-09T04:31:21;100719.75;;;12.65;100.00
21357;BME280;10836;53.068;18.234;2022-09-09T04:33:53;100717.84;;;12.65;100.00
21357;BME280;10836;53.068;18.234;2022-09-09T04:36:20;100721.44;;;12.61;100.00
21357;BME280;10836;53.068;18.234;2022-09-09T04:38:49;100720.94;;;12.88;100.00
21357;BME280;10836;53.068;18.234;2022-09-09T04:41:17;100729.78;;;12.46;100.00
21357;BME280;10836;53.068;18.234;2022-09-09T04:43:46;100728.28;;;12.58;100.00
21357;BME280;10836;53.068;18.234;2022-09-09T04:46:14;100730.03;;;12.49;100.00
21357;BME280;10836;53.068;18.234;2022-09-09T04:48:44;100733.78;;;12.58;100.00
21357;BME280;10836;53.068;18.234;2022-09-09T04:51:13;100739.19;;;12.69;100.00
21357;BME280;10836;53.068;18.234;2022-09-09T04:53:41;100739.66;;;12.76;100.00
21357;BME280;10836;53.068;18.234;2022-09-09T04:56:13;100744.63;;;12.74;100.00
21357;BME280;10836;53.068;18.234;2022-09-09T04:58:45;100751.69;;;12.80;100.00
21357;BME280;10836;53.068;18.234;2022-09-09T05:01:15;100748.91;;;12.85;100.00
21357;BME280;10836;53.068;18.234;2022-09-09T05:03:47;100751.38;;;12.86;100.00
21357;BME280;10836;53.068;18.234;2022-09-09T05:06:20;100756.03;;;12.86;100.00
21357;BME280;10836;53.068;18.234;2022-09-09T05:08:50;100741.25;;;12.82;100.00
21357;BME280;10836;53.068;18.234;2022-09-09T05:11:28;100735.91;;;12.66;100.00
21357;BME280;10836;53.068;18.234;2022-09-09T05:13:59;100746.72;;;12.87;100.00
21357;BME280;10836;53.068;18.234;2022-09-09T05:16:29;100741.97;;;12.63;100.00
21357;BME280;10836;53.068;18.234;2022-09-09T05:18:57;100741.97;;;12.63;100.00
21357;BME280;10836;53.068;18.234;2022-09-09T05:21:25;100733.84;;;12.53;100.00
21357;BME280;10836;53.068;18.234;2022-09-09T05:23:54;100734.47;;;12.40;100.00
21357;BME280;10836;53.068;18.234;2022-09-09T05:26:22;100748.41;;;12.78;100.00
21357;BME280;10836;53.068;18.234;2022-09-09T05:28:51;100747.94;;;12.71;100.00
21357;BME280;10836;53.068;18.234;2022-09-09T05:31:19;100746.28;;;12.70;100.00
21357;BME280;10836;53.068;18.234;2022-09-09T05:33:49;100745.06;;;12.86;100.00
21357;BME280;10836;53.068;18.234;2022-09-09T05:36:18;100753.75;;;12.98;100.00
21357;BME280;10836;53.068;18.234;2022-09-09T05:38:50;100756.06;;;12.81;100.00
21357;BME280;10836;53.068;18.234;2022-09-09T05:41:18;100749.16;;;12.88;100.00
21357;BME280;10836;53.068;18.234;2022-09-09T05:43:47;100751.97;;;13.07;100.00
21357;BME280;10836;53.068;18.234;2022-09-09T05:46:16;100759.97;;;12.75;100.00
21357;BME280;10836;53.068;18.234;2022-09-09T05:48:47;100761.59;;;12.76;100.00
21357;BME280;10836;53.068;18.234;2022-09-09T05:51:25;100755.22;;;12.85;100.00
21357;BME280;10836;53.068;18.234;2022-09-09T05:53:55;100753.88;;;13.12;100.00
21357;BME280;10836;53.068;18.234;2022-09-09T05:56:28;100752.47;;;13.14;100.00
21357;BME280;10836;53.068;18.234;2022-09-09T05:58:58;100744.28;;;13.09;100.00
21357;BME280;10836;53.068;18.234;2022-09-09T06:01:29;100746.69;;;13.21;100.00
21357;BME280;10836;53.068;18.234;2022-09-09T06:03:58;100748.88;;;13.19;100.00
21357;BME280;10836;53.068;18.234;2022-09-09T06:06:33;100760.97;;;13.13;100.00
21357;BME280;10836;53.068;18.234;2022-09-09T06:09:09;100760.34;;;13.26;100.00
21357;BME280;10836;53.068;18.234;2022-09-09T06:11:40;100755.72;;;13.21;100.00
21357;BME280;10836;53.068;18.234;2022-09-09T06:14:08;100761.25;;;13.16;100.00
21357;BME280;10836;53.068;18.234;2022-09-09T06:16:37;100768.91;;;13.14;100.00
21357;BME280;10836;53.068;18.234;2022-09-09T06:19:11;100782.63;;;13.14;100.00
21357;BME280;10836;53.068;18.234;2022-09-09T06:21:40;100776.69;;;13.02;100.00
21357;BME280;10836;53.068;18.234;2022-09-09T06:24:08;100782.66;;;13.09;100.00
21357;BME280;10836;53.068;18.234;2022-09-09T06:26:37;100779.16;;;13.38;100.00
21357;BME280;10836;53.068;18.234;2022-09-09T06:29:10;100781.72;;;12.95;100.00
21357;BME280;10836;53.068;18.234;2022-09-09T06:31:38;100780.78;;;13.05;100.00
21357;BME280;10836;53.068;18.234;2022-09-09T06:34:12;100783.72;;;13.13;100.00
21357;BME280;10836;53.068;18.234;2022-09-09T06:36:44;100787.66;;;13.02;100.00
21357;BME280;10836;53.068;18.234;2022-09-09T06:39:12;100790.31;;;13.17;100.00
21357;BME280;10836;53.068;18.234;2022-09-09T06:41:42;100789.38;;;12.98;100.00
21357;BME280;10836;53.068;18.234;2022-09-09T06:44:28;100789.78;;;13.10;100.00
21357;BME280;10836;53.068;18.234;2022-09-09T06:47:02;100791.19;;;13.42;100.00
21357;BME280;10836;53.068;18.234;2022-09-09T06:49:30;100791.56;;;13.54;100.00
21357;BME280;10836;53.068;18.234;2022-09-09T06:51:57;100783.56;;;13.34;100.00
21357;BME280;10836;53.068;18.234;2022-09-09T06:54:25;100786.38;;;13.28;100.00
21357;BME280;10836;53.068;18.234;2022-09-09T06:56:52;100788.09;;;13.14;100.00
21357;BME280;10836;53.068;18.234;2022-09-09T06:59:22;100798.41;;;13.32;100.00
21357;BME280;10836;53.068;18.234;2022-09-09T07:01:53;100783.09;;;13.26;100.00
21357;BME280;10836;53.068;18.234;2022-09-09T07:04:22;100788.00;;;13.29;100.00
21357;BME280;10836;53.068;18.234;2022-09-09T07:06:50;100789.06;;;13.34;100.00
21357;BME280;10836;53.068;18.234;2022-09-09T07:09:23;100793.28;;;13.74;100.00
21357;BME280;10836;53.068;18.234;2022-09-09T07:11:52;100787.38;;;13.61;100.00
21357;BME280;10836;53.068;18.234;2022-09-09T07:14:21;100791.19;;;13.42;100.00
21357;BME280;10836;53.068;18.234;2022-09-09T07:16:56;100793.97;;;13.37;100.00
21357;BME280;10836;53.068;18.234;2022-09-09T07:19:28;100790.34;;;13.65;100.00
21357;BME280;10836;53.068;18.234;2022-09-09T07:21:55;100800.56;;;13.59;100.00
21357;BME280;10836;53.068;18.234;2022-09-09T07:24:24;100804.56;;;13.72;100.00
21357;BME280;10836;53.068;18.234;2022-09-09T07:26:51;100807.63;;;13.89;100.00
21357;BME280;10836;53.068;18.234;2022-09-09T07:29:20;100801.47;;;14.21;100.00
21357;BME280;10836;53.068;18.234;2022-09-09T07:31:49;100808.94;;;13.73;100.00
21357;BME280;10836;53.068;18.234;2022-09-09T07:34:22;100801.56;;;13.69;100.00
21357;BME280;10836;53.068;18.234;2022-09-09T07:36:50;100808.22;;;13.86;100.00
21357;BME280;10836;53.068;18.234;2022-09-09T07:39:18;100812.09;;;13.85;100.00
21357;BME280;10836;53.068;18.234;2022-09-09T07:41:49;100813.84;;;14.19;100.00
21357;BME280;10836;53.068;18.234;2022-09-09T07:44:21;100810.75;;;14.25;100.00
21357;BME280;10836;53.068;18.234;2022-09-09T07:46:53;100808.50;;;14.09;100.00
21357;BME280;10836;53.068;18.234;2022-09-09T07:49:26;100818.53;;;14.37;100.00
21357;BME280;10836;53.068;18.234;2022-09-09T07:52:00;100822.91;;;14.38;100.00
21357;BME280;10836;53.068;18.234;2022-09-09T07:54:28;100818.94;;;14.49;100.00
21357;BME280;10836;53.068;18.234;2022-09-09T07:56:55;100825.09;;;14.41;100.00
21357;BME280;10836;53.068;18.234;2022-09-09T07:59:26;100813.16;;;14.51;100.00
21357;BME280;10836;53.068;18.234;2022-09-09T08:01:54;100821.34;;;14.32;100.00
21357;BME280;10836;53.068;18.234;2022-09-09T08:04:25;100828.09;;;14.63;100.00
21357;BME280;10836;53.068;18.234;2022-09-09T08:06:58;100830.69;;;14.31;100.00
21357;BME280;10836;53.068;18.234;2022-09-09T08:09:27;100837.47;;;14.62;100.00
21357;BME280;10836;53.068;18.234;2022-09-09T08:12:21;100842.25;;;15.08;100.00
21357;BME280;10836;53.068;18.234;2022-09-09T08:14:49;100840.94;;;15.19;100.00
21357;BME280;10836;53.068;18.234;2022-09-09T08:17:19;100849.59;;;15.13;100.00
21357;BME280;10836;53.068;18.234;2022-09-09T08:19:46;100842.19;;;15.27;100.00
21357;BME280;10836;53.068;18.234;2022-09-09T08:22:18;100842.75;;;15.10;100.00
21357;BME280;10836;53.068;18.234;2022-09-09T08:24:45;100845.31;;;14.88;100.00
21357;BME280;10836;53.068;18.234;2022-09-09T08:27:14;100844.25;;;15.03;100.00
21357;BME280;10836;53.068;18.234;2022-09-09T08:29:41;100854.81;;;15.28;100.00
21357;BME280;10836;53.068;18.234;2022-09-09T08:32:08;100857.94;;;15.21;100.00
21357;BME280;10836;53.068;18.234;2022-09-09T08:34:38;100863.88;;;14.96;100.00
21357;BME280;10836;53.068;18.234;2022-09-09T08:37:11;100850.38;;;15.46;100.00
21357;BME280;10836;53.068;18.234;2022-09-09T08:39:40;100861.13;;;15.61;100.00
21357;BME280;10836;53.068;18.234;2022-09-09T08:42:41;100864.69;;;15.15;100.00
21357;BME280;10836;53.068;18.234;2022-09-09T08:48:13;100866.28;;;15.16;100.00
21357;BME280;10836;53.068;18.234;2022-09-09T08:50:42;100867.59;;;15.05;100.00
21357;BME280;10836;53.068;18.234;2022-09-09T08:53:23;100862.75;;;15.16;100.00
21357;BME280;10836;53.068;18.234;2022-09-09T08:55:56;100872.22;;;15.23;100.00
21357;BME280;10836;53.068;18.234;2022-09-09T08:58:47;100875.28;;;15.22;100.00
21357;BME280;10836;53.068;18.234;2022-09-09T09:04:31;100879.03;;;16.05;100.00
21357;BME280;10836;53.068;18.234;2022-09-09T09:10:33;100877.91;;;16.06;100.00
21357;BME280;10836;53.068;18.234;2022-09-09T09:13:19;100872.72;;;16.18;100.00
21357;BME280;10836;53.068;18.234;2022-09-09T09:15:55;100882.63;;;15.91;100.00
21357;BME280;10836;53.068;18.234;2022-09-09T09:18:23;100874.13;;;15.74;100.00
21357;BME280;10836;53.068;18.234;2022-09-09T09:21:14;100878.72;;;15.79;100.00
21357;BME280;10836;53.068;18.234;2022-09-09T09:23:57;100881.06;;;16.26;100.00
21357;BME280;10836;53.068;18.234;2022-09-09T09:26:30;100881.47;;;16.06;100.00
21357;BME280;10836;53.068;18.234;2022-09-09T09:29:03;100883.72;;;16.18;100.00
21357;BME280;10836;53.068;18.234;2022-09-09T09:31:35;100880.34;;;16.07;100.00
21357;BME280;10836;53.068;18.234;2022-09-09T09:34:03;100889.00;;;15.73;100.00
21357;BME280;10836;53.068;18.234;2022-09-09T09:36:43;100888.41;;;16.45;100.00
21357;BME280;10836;53.068;18.234;2022-09-09T09:39:24;100884.53;;;16.05;100.00
21357;BME280;10836;53.068;18.234;2022-09-09T09:42:13;100895.38;;;16.42;100.00
21357;BME280;10836;53.068;18.234;2022-09-09T09:44:43;100891.97;;;16.04;100.00
21357;BME280;10836;53.068;18.234;2022-09-09T09:47:20;100888.22;;;16.14;100.00
21357;BME280;10836;53.068;18.234;2022-09-09T09:50:17;100891.19;;;16.31;100.00
21357;BME280;10836;53.068;18.234;2022-09-09T09:52:54;100892.06;;;16.68;100.00
21357;BME280;10836;53.068;18.234;2022-09-09T09:55:23;100886.44;;;17.09;100.00
21357;BME280;10836;53.068;18.234;2022-09-09T09:57:52;100883.19;;;16.93;100.00
21357;BME280;10836;53.068;18.234;2022-09-09T10:00:22;100889.34;;;16.90;100.00
21357;BME280;10836;53.068;18.234;2022-09-09T10:02:59;100888.06;;;16.74;100.00
21357;BME280;10836;53.068;18.234;2022-09-09T10:05:31;100888.69;;;16.71;100.00
21357;BME280;10836;53.068;18.234;2022-09-09T10:10:51;100889.59;;;16.80;100.00
21357;BME280;10836;53.068;18.234;2022-09-09T10:13:29;100889.03;;;16.42;100.00
21357;BME280;10836;53.068;18.234;2022-09-09T10:16:37;100890.22;;;16.49;100.00
21357;BME280;10836;53.068;18.234;2022-09-09T10:19:13;100896.53;;;16.63;100.00
21357;BME280;10836;53.068;18.234;2022-09-09T10:31:15;100899.13;;;16.96;98.92
21357;BME280;10836;53.068;18.234;2022-09-09T10:36:27;100899.13;;;16.96;100.00
21357;BME280;10836;53.068;18.234;2022-09-09T10:39:01;100905.94;;;17.12;99.73
21357;BME280;10836;53.068;18.234;2022-09-09T10:41:42;100910.00;;;17.15;100.00
21357;BME280;10836;53.068;18.234;2022-09-09T10:44:18;100903.09;;;16.68;100.00
21357;BME280;10836;53.068;18.234;2022-09-09T10:52:22;100907.72;;;17.84;95.75
21357;BME280;10836;53.068;18.234;2022-09-09T10:57:50;100918.25;;;17.73;92.50
21357;BME280;10836;53.068;18.234;2022-09-09T11:00:44;100917.88;;;17.66;93.48
21357;BME280;10836;53.068;18.234;2022-09-09T11:03:19;100923.78;;;17.73;95.52
21357;BME280;10836;53.068;18.234;2022-09-09T11:05:49;100920.22;;;17.37;94.92
21357;BME280;10836;53.068;18.234;2022-09-09T11:08:21;100928.09;;;17.97;94.10
21357;BME280;10836;53.068;18.234;2022-09-09T11:11:02;100931.75;;;17.75;94.86
21357;BME280;10836;53.068;18.234;2022-09-09T11:13:47;100933.53;;;18.50;91.85
21357;BME280;10836;53.068;18.234;2022-09-09T11:16:46;100935.81;;;18.56;90.73
21357;BME280;10836;53.068;18.234;2022-09-09T11:19:38;100936.63;;;18.57;90.18
21357;BME280;10836;53.068;18.234;2022-09-09T11:22:30;100936.22;;;18.81;88.52
21357;BME280;10836;53.068;18.234;2022-09-09T11:25:16;100939.81;;;18.90;86.72
21357;BME280;10836;53.068;18.234;2022-09-09T11:36:29;100942.75;;;19.19;82.73
21357;BME280;10836;53.068;18.234;2022-09-09T11:44:34;100949.09;;;18.94;84.64
21357;BME280;10836;53.068;18.234;2022-09-09T11:47:20;100949.75;;;19.08;84.82
21357;BME280;10836;53.068;18.234;2022-09-09T11:49:49;100952.66;;;18.86;90.40
21357;BME280;10836;53.068;18.234;2022-09-09T11:52:25;100946.81;;;18.87;86.21
21357;BME280;10836;53.068;18.234;2022-09-09T11:55:10;100943.38;;;18.82;88.57
21357;BME280;10836;53.068;18.234;2022-09-09T11:57:39;100947.81;;;19.35;84.14
21357;BME280;10836;53.068;18.234;2022-09-09T12:00:06;100945.66;;;19.83;84.96
21357;BME280;10836;53.068;18.234;2022-09-09T12:02:48;100945.28;;;20.40;80.83
21357;BME280;10836;53.068;18.234;2022-09-09T12:05:16;100945.59;;;20.77;76.16
21357;BME280;10836;53.068;18.234;2022-09-09T12:07:54;100938.56;;;21.00;76.41
21357;BME280;10836;53.068;18.234;2022-09-09T12:10:29;100935.22;;;21.81;71.75
21357;BME280;10836;53.068;18.234;2022-09-09T12:13:29;100935.59;;;23.42;64.45
21357;BME280;10836;53.068;18.234;2022-09-09T12:15:59;100943.22;;;25.14;59.23
21357;BME280;10836;53.068;18.234;2022-09-09T12:18:35;100929.81;;;25.81;56.20
21357;BME280;10836;53.068;18.234;2022-09-09T12:24:09;100936.50;;;27.58;52.37
21357;BME280;10836;53.068;18.234;2022-09-09T12:29:42;100919.06;;;27.75;49.37
21357;BME280;10836;53.068;18.234;2022-09-09T12:32:16;100920.59;;;27.36;52.23
21357;BME280;10836;53.068;18.234;2022-09-09T12:40:26;100917.00;;;25.61;55.27
21357;BME280;10836;53.068;18.234;2022-09-09T12:42:54;100918.25;;;24.71;59.92
21357;BME280;10836;53.068;18.234;2022-09-09T12:45:28;100915.03;;;23.46;64.58
21357;BME280;10836;53.068;18.234;2022-09-09T12:48:00;100918.53;;;23.15;64.06
21357;BME280;10836;53.068;18.234;2022-09-09T12:50:46;100901.75;;;24.15;61.12
21357;BME280;10836;53.068;18.234;2022-09-09T12:53:27;100895.81;;;24.01;60.97
21357;BME280;10836;53.068;18.234;2022-09-09T12:55:58;100901.25;;;24.95;59.88
21357;BME280;10836;53.068;18.234;2022-09-09T12:58:26;100904.16;;;25.99;54.49
21357;BME280;10836;53.068;18.234;2022-09-09T13:00:56;100902.91;;;27.28;50.48
21357;BME280;10836;53.068;18.234;2022-09-09T13:03:24;100895.16;;;27.89;50.68
21357;BME280;10836;53.068;18.234;2022-09-09T13:05:58;100897.25;;;27.25;51.85
21357;BME280;10836;53.068;18.234;2022-09-09T13:08:27;100898.03;;;27.22;52.00
21357;BME280;10836;53.068;18.234;2022-09-09T13:11:02;100890.06;;;28.01;50.57
21357;BME280;10836;53.068;18.234;2022-09-09T13:13:37;100888.28;;;27.82;50.01
21357;BME280;10836;53.068;18.234;2022-09-09T13:16:06;100890.88;;;26.68;52.58
21357;BME280;10836;53.068;18.234;2022-09-09T13:18:44;100891.63;;;26.15;54.24
21357;BME280;10836;53.068;18.234;2022-09-09T13:21:12;100875.34;;;25.14;56.31
21357;BME280;10836;53.068;18.234;2022-09-09T13:23:40;100881.22;;;24.54;58.99
21357;BME280;10836;53.068;18.234;2022-09-09T13:26:25;100874.19;;;24.61;59.11
21357;BME280;10836;53.068;18.234;2022-09-09T13:28:53;100871.16;;;24.03;58.97
21357;BME280;10836;53.068;18.234;2022-09-09T13:31:33;100880.69;;;24.02;62.08
21357;BME280;10836;53.068;18.234;2022-09-09T13:34:31;100877.09;;;23.14;64.39
21357;BME280;10836;53.068;18.234;2022-09-09T13:37:05;100866.22;;;23.37;62.91
21357;BME280;10836;53.068;18.234;2022-09-09T13:39:36;100862.88;;;23.03;63.76
21357;BME280;10836;53.068;18.234;2022-09-09T13:42:04;100859.78;;;22.93;66.83
21357;BME280;10836;53.068;18.234;2022-09-09T13:44:40;100857.50;;;22.82;68.25
21357;BME280;10836;53.068;18.234;2022-09-09T13:49:36;100873.19;;;22.14;67.01
21357;BME280;10836;53.068;18.234;2022-09-09T13:52:23;100876.16;;;22.70;66.22
21357;BME280;10836;53.068;18.234;2022-09-09T13:54:52;100872.50;;;23.62;62.78
21357;BME280;10836;53.068;18.234;2022-09-09T13:57:24;100876.94;;;23.78;61.29
21357;BME280;10836;53.068;18.234;2022-09-09T13:59:53;100872.03;;;23.04;64.52
21357;BME280;10836;53.068;18.234;2022-09-09T14:02:36;100863.34;;;23.49;63.75
21357;BME280;10836;53.068;18.234;2022-09-09T14:05:05;100875.47;;;24.16;60.29
21357;BME280;10836;53.068;18.234;2022-09-09T14:07:32;100881.25;;;24.23;60.43
21357;BME280;10836;53.068;18.234;2022-09-09T14:09:59;100874.41;;;23.73;62.46
21357;BME280;10836;53.068;18.234;2022-09-09T14:12:27;100881.72;;;22.94;63.80
21357;BME280;10836;53.068;18.234;2022-09-09T14:14:54;100877.25;;;22.29;66.46
21357;BME280;10836;53.068;18.234;2022-09-09T14:17:21;100878.50;;;21.95;69.46
21357;BME280;10836;53.068;18.234;2022-09-09T14:19:49;100876.81;;;21.57;70.26
21357;BME280;10836;53.068;18.234;2022-09-09T14:22:15;100870.78;;;21.55;71.35
21357;BME280;10836;53.068;18.234;2022-09-09T14:24:42;100874.72;;;21.66;70.03
21357;BME280;10836;53.068;18.234;2022-09-09T14:27:09;100883.94;;;21.91;71.01
21357;BME280;10836;53.068;18.234;2022-09-09T14:29:36;100881.78;;;21.51;71.69
21357;BME280;10836;53.068;18.234;2022-09-09T14:32:04;100878.84;;;20.73;74.60
21357;BME280;10836;53.068;18.234;2022-09-09T14:34:36;100872.84;;;20.42;76.42
21357;BME280;10836;53.068;18.234;2022-09-09T14:37:03;100873.84;;;20.67;75.05